Hatton, North Dakota
Current Conditions -  °F | °C
As of 3:58 AM on Saturday 22 Nov 2014 (Local Time) from KRDR Reporting Station
Clear Clear  
Wind Chill: 19°   Ceiling: Unl
Heat Index: 26°   Visibility: 10mi
Dew Point: 25°   Wind: 6mph
Humidity: 97%   Direction: 270°W
Pressure: 29.61"   Gusts: NA
Location:  47.64°N, 97.45°W
Report Text: KRDR 220958Z AUTO 27005KT 10SM CLR M04/M04 A2961 RMK AO2 SLP043 T10361040
Loading
Personal Weather Stations






























Interactive Weather Map New forecast layout! Learn more

10-Day Weather Forecast

Advertisements
Track Severe Weather on mobile